sensor_id;sensor_type;location;lat;lon;timestamp;P1;durP1;ratioP1;P2;durP2;ratioP2
12118;SDS011;6123;48.864;9.200;2022-09-30T00:01:48;6.05;;;5.22;;
12118;SDS011;6123;48.864;9.200;2022-09-30T00:04:16;5.30;;;4.85;;
12118;SDS011;6123;48.864;9.200;2022-09-30T00:06:44;7.13;;;4.95;;
12118;SDS011;6123;48.864;9.200;2022-09-30T00:09:10;5.45;;;4.93;;
12118;SDS011;6123;48.864;9.200;2022-09-30T00:11:37;5.53;;;5.07;;
12118;SDS011;6123;48.864;9.200;2022-09-30T00:14:04;6.93;;;6.32;;
12118;SDS011;6123;48.864;9.200;2022-09-30T00:16:34;5.65;;;5.18;;
12118;SDS011;6123;48.864;9.200;2022-09-30T00:19:01;5.40;;;4.90;;
12118;SDS011;6123;48.864;9.200;2022-09-30T00:21:28;5.55;;;5.05;;
12118;SDS011;6123;48.864;9.200;2022-09-30T00:23:54;6.10;;;5.53;;
12118;SDS011;6123;48.864;9.200;2022-09-30T00:26:21;5.97;;;5.38;;
12118;SDS011;6123;48.864;9.200;2022-09-30T00:28:55;5.32;;;4.82;;
12118;SDS011;6123;48.864;9.200;2022-09-30T00:31:23;6.55;;;5.68;;
12118;SDS011;6123;48.864;9.200;2022-09-30T00:33:50;6.20;;;5.65;;
12118;SDS011;6123;48.864;9.200;2022-09-30T00:36:41;6.68;;;5.97;;
12118;SDS011;6123;48.864;9.200;2022-09-30T00:39:10;6.13;;;5.53;;
12118;SDS011;6123;48.864;9.200;2022-09-30T00:41:38;6.10;;;5.60;;
12118;SDS011;6123;48.864;9.200;2022-09-30T00:52:50;7.85;;;7.13;;
12118;SDS011;6123;48.864;9.200;2022-09-30T00:55:24;7.60;;;6.25;;
12118;SDS011;6123;48.864;9.200;2022-09-30T00:58:02;6.20;;;5.70;;
12118;SDS011;6123;48.864;9.200;2022-09-30T01:00:30;7.55;;;6.72;;
12118;SDS011;6123;48.864;9.200;2022-09-30T01:02:55;6.50;;;5.68;;
12118;SDS011;6123;48.864;9.200;2022-09-30T01:05:24;7.68;;;6.93;;
12118;SDS011;6123;48.864;9.200;2022-09-30T01:07:51;6.80;;;5.93;;
12118;SDS011;6123;48.864;9.200;2022-09-30T01:10:20;7.05;;;6.35;;
12118;SDS011;6123;48.864;9.200;2022-09-30T01:12:45;6.13;;;4.80;;
12118;SDS011;6123;48.864;9.200;2022-09-30T01:15:11;6.22;;;5.10;;
12118;SDS011;6123;48.864;9.200;2022-09-30T01:17:47;5.40;;;4.95;;
12118;SDS011;6123;48.864;9.200;2022-09-30T01:28:10;7.00;;;5.30;;
12118;SDS011;6123;48.864;9.200;2022-09-30T01:47:33;4.60;;;4.20;;
12118;SDS011;6123;48.864;9.200;2022-09-30T01:53:05;4.53;;;4.10;;
12118;SDS011;6123;48.864;9.200;2022-09-30T01:55:47;4.45;;;4.05;;
12118;SDS011;6123;48.864;9.200;2022-09-30T01:58:36;4.85;;;4.30;;
12118;SDS011;6123;48.864;9.200;2022-09-30T02:01:06;4.28;;;3.80;;
12118;SDS011;6123;48.864;9.200;2022-09-30T02:03:47;4.72;;;4.10;;
12118;SDS011;6123;48.864;9.200;2022-09-30T02:06:18;4.40;;;4.10;;
12118;SDS011;6123;48.864;9.200;2022-09-30T02:08:57;4.85;;;3.70;;
12118;SDS011;6123;48.864;9.200;2022-09-30T02:11:28;5.38;;;4.07;;
12118;SDS011;6123;48.864;9.200;2022-09-30T02:16:38;6.10;;;4.72;;
12118;SDS011;6123;48.864;9.200;2022-09-30T02:21:51;4.75;;;4.35;;
12118;SDS011;6123;48.864;9.200;2022-09-30T02:24:23;4.40;;;4.00;;
12118;SDS011;6123;48.864;9.200;2022-09-30T02:26:55;4.80;;;4.40;;
12118;SDS011;6123;48.864;9.200;2022-09-30T02:29:25;4.22;;;3.92;;
12118;SDS011;6123;48.864;9.200;2022-09-30T02:31:57;5.22;;;3.95;;
12118;SDS011;6123;48.864;9.200;2022-09-30T02:34:34;4.47;;;3.92;;
12118;SDS011;6123;48.864;9.200;2022-09-30T02:37:39;4.68;;;4.25;;
12118;SDS011;6123;48.864;9.200;2022-09-30T02:42:50;5.53;;;5.00;;
12118;SDS011;6123;48.864;9.200;2022-09-30T02:45:18;4.45;;;4.15;;
12118;SDS011;6123;48.864;9.200;2022-09-30T02:47:49;5.70;;;3.63;;
12118;SDS011;6123;48.864;9.200;2022-09-30T02:50:33;4.80;;;3.60;;
12118;SDS011;6123;48.864;9.200;2022-09-30T02:59:12;4.70;;;4.28;;
12118;SDS011;6123;48.864;9.200;2022-09-30T03:01:38;3.97;;;3.60;;
12118;SDS011;6123;48.864;9.200;2022-09-30T03:04:07;4.60;;;4.20;;
12118;SDS011;6123;48.864;9.200;2022-09-30T03:06:35;5.93;;;4.82;;
12118;SDS011;6123;48.864;9.200;2022-09-30T03:09:02;5.78;;;4.60;;
12118;SDS011;6123;48.864;9.200;2022-09-30T03:11:30;4.97;;;3.92;;
12118;SDS011;6123;48.864;9.200;2022-09-30T03:30:29;4.68;;;4.28;;
12118;SDS011;6123;48.864;9.200;2022-09-30T03:38:31;4.82;;;4.32;;
12118;SDS011;6123;48.864;9.200;2022-09-30T03:44:00;4.70;;;4.28;;
12118;SDS011;6123;48.864;9.200;2022-09-30T03:49:01;5.10;;;4.60;;
12118;SDS011;6123;48.864;9.200;2022-09-30T03:51:31;5.72;;;4.07;;
12118;SDS011;6123;48.864;9.200;2022-09-30T03:54:09;5.25;;;4.75;;
12118;SDS011;6123;48.864;9.200;2022-09-30T03:56:38;4.60;;;4.20;;
12118;SDS011;6123;48.864;9.200;2022-09-30T03:59:11;5.50;;;4.88;;
12118;SDS011;6123;48.864;9.200;2022-09-30T04:01:44;6.85;;;5.20;;
12118;SDS011;6123;48.864;9.200;2022-09-30T04:04:10;4.88;;;4.47;;
12118;SDS011;6123;48.864;9.200;2022-09-30T04:06:37;5.60;;;5.10;;
12118;SDS011;6123;48.864;9.200;2022-09-30T04:09:03;6.88;;;6.28;;
12118;SDS011;6123;48.864;9.200;2022-09-30T04:11:29;6.28;;;5.70;;
12118;SDS011;6123;48.864;9.200;2022-09-30T04:13:54;5.03;;;4.63;;
12118;SDS011;6123;48.864;9.200;2022-09-30T04:16:20;4.50;;;4.10;;
12118;SDS011;6123;48.864;9.200;2022-09-30T04:18:46;4.03;;;3.63;;
12118;SDS011;6123;48.864;9.200;2022-09-30T04:21:12;4.35;;;4.00;;
12118;SDS011;6123;48.864;9.200;2022-09-30T04:23:41;4.55;;;3.85;;
12118;SDS011;6123;48.864;9.200;2022-09-30T04:26:09;4.00;;;3.58;;
12118;SDS011;6123;48.864;9.200;2022-09-30T04:28:36;5.65;;;4.30;;
12118;SDS011;6123;48.864;9.200;2022-09-30T04:31:03;5.65;;;4.38;;
12118;SDS011;6123;48.864;9.200;2022-09-30T04:33:29;4.45;;;3.90;;
12118;SDS011;6123;48.864;9.200;2022-09-30T04:35:56;4.70;;;4.30;;
12118;SDS011;6123;48.864;9.200;2022-09-30T04:38:23;4.22;;;3.72;;
12118;SDS011;6123;48.864;9.200;2022-09-30T04:40:52;4.22;;;3.88;;
12118;SDS011;6123;48.864;9.200;2022-09-30T04:43:18;6.13;;;4.10;;
12118;SDS011;6123;48.864;9.200;2022-09-30T04:45:50;4.30;;;3.92;;
12118;SDS011;6123;48.864;9.200;2022-09-30T04:48:21;5.00;;;4.53;;
12118;SDS011;6123;48.864;9.200;2022-09-30T04:50:47;5.40;;;4.90;;
12118;SDS011;6123;48.864;9.200;2022-09-30T04:53:13;5.18;;;4.18;;
12118;SDS011;6123;48.864;9.200;2022-09-30T04:55:43;5.43;;;4.50;;
12118;SDS011;6123;48.864;9.200;2022-09-30T04:58:12;4.80;;;4.30;;
12118;SDS011;6123;48.864;9.200;2022-09-30T05:00:38;4.50;;;4.10;;
12118;SDS011;6123;48.864;9.200;2022-09-30T05:03:03;4.32;;;4.03;;
12118;SDS011;6123;48.864;9.200;2022-09-30T05:05:29;4.38;;;3.97;;
12118;SDS011;6123;48.864;9.200;2022-09-30T05:07:59;4.78;;;4.38;;
12118;SDS011;6123;48.864;9.200;2022-09-30T05:10:26;4.63;;;3.92;;
12118;SDS011;6123;48.864;9.200;2022-09-30T05:12:52;4.80;;;4.30;;
12118;SDS011;6123;48.864;9.200;2022-09-30T05:15:18;4.40;;;4.00;;
12118;SDS011;6123;48.864;9.200;2022-09-30T05:17:43;4.93;;;4.43;;
12118;SDS011;6123;48.864;9.200;2022-09-30T05:20:15;3.78;;;3.42;;
12118;SDS011;6123;48.864;9.200;2022-09-30T05:22:40;6.13;;;5.38;;
12118;SDS011;6123;48.864;9.200;2022-09-30T05:25:06;8.90;;;6.80;;
12118;SDS011;6123;48.864;9.200;2022-09-30T05:27:32;7.43;;;6.72;;
12118;SDS011;6123;48.864;9.200;2022-09-30T05:29:58;5.40;;;4.60;;
12118;SDS011;6123;48.864;9.200;2022-09-30T05:32:26;5.25;;;4.85;;
12118;SDS011;6123;48.864;9.200;2022-09-30T05:34:52;5.80;;;5.38;;
12118;SDS011;6123;48.864;9.200;2022-09-30T05:37:19;4.32;;;4.03;;
12118;SDS011;6123;48.864;9.200;2022-09-30T05:39:47;4.82;;;4.43;;
12118;SDS011;6123;48.864;9.200;2022-09-30T05:42:13;4.47;;;4.07;;
12118;SDS011;6123;48.864;9.200;2022-09-30T05:44:39;5.20;;;4.80;;
12118;SDS011;6123;48.864;9.200;2022-09-30T05:47:04;5.22;;;4.80;;
12118;SDS011;6123;48.864;9.200;2022-09-30T05:49:30;5.38;;;4.88;;
12118;SDS011;6123;48.864;9.200;2022-09-30T05:52:01;5.22;;;4.25;;
12118;SDS011;6123;48.864;9.200;2022-09-30T05:54:29;4.75;;;4.35;;
12118;SDS011;6123;48.864;9.200;2022-09-30T05:56:58;5.10;;;4.50;;
12118;SDS011;6123;48.864;9.200;2022-09-30T05:59:24;5.40;;;4.90;;
12118;SDS011;6123;48.864;9.200;2022-09-30T06:01:50;6.75;;;6.05;;
12118;SDS011;6123;48.864;9.200;2022-09-30T06:04:16;5.78;;;5.07;;
12118;SDS011;6123;48.864;9.200;2022-09-30T06:06:42;5.88;;;5.05;;
12118;SDS011;6123;48.864;9.200;2022-09-30T06:09:08;5.18;;;4.78;;
12118;SDS011;6123;48.864;9.200;2022-09-30T06:11:33;5.72;;;4.35;;
12118;SDS011;6123;48.864;9.200;2022-09-30T06:13:59;5.30;;;4.80;;
12118;SDS011;6123;48.864;9.200;2022-09-30T06:16:24;5.35;;;4.85;;
12118;SDS011;6123;48.864;9.200;2022-09-30T06:18:50;6.25;;;5.55;;
12118;SDS011;6123;48.864;9.200;2022-09-30T06:21:16;6.50;;;5.53;;
12118;SDS011;6123;48.864;9.200;2022-09-30T06:23:42;6.00;;;5.15;;
12118;SDS011;6123;48.864;9.200;2022-09-30T06:26:09;6.28;;;5.68;;
12118;SDS011;6123;48.864;9.200;2022-09-30T06:28:38;5.28;;;4.88;;
12118;SDS011;6123;48.864;9.200;2022-09-30T06:31:04;5.35;;;4.95;;
12118;SDS011;6123;48.864;9.200;2022-09-30T06:33:31;7.50;;;6.00;;
12118;SDS011;6123;48.864;9.200;2022-09-30T06:35:59;6.25;;;5.75;;
12118;SDS011;6123;48.864;9.200;2022-09-30T06:38:32;5.60;;;5.10;;
12118;SDS011;6123;48.864;9.200;2022-09-30T06:41:05;5.45;;;5.05;;
12118;SDS011;6123;48.864;9.200;2022-09-30T06:43:31;5.20;;;4.80;;
12118;SDS011;6123;48.864;9.200;2022-09-30T06:45:57;15.27;;;6.22;;
12118;SDS011;6123;48.864;9.200;2022-09-30T06:48:22;9.55;;;6.38;;
12118;SDS011;6123;48.864;9.200;2022-09-30T06:50:48;6.28;;;5.68;;
12118;SDS011;6123;48.864;9.200;2022-09-30T06:53:17;15.02;;;8.32;;
12118;SDS011;6123;48.864;9.200;2022-09-30T06:55:42;8.50;;;7.63;;
12118;SDS011;6123;48.864;9.200;2022-09-30T06:58:09;11.38;;;8.20;;
12118;SDS011;6123;48.864;9.200;2022-09-30T07:00:38;10.48;;;8.30;;
12118;SDS011;6123;48.864;9.200;2022-09-30T07:03:04;13.07;;;9.60;;
12118;SDS011;6123;48.864;9.200;2022-09-30T07:05:33;24.67;;;11.90;;
12118;SDS011;6123;48.864;9.200;2022-09-30T07:08:04;13.27;;;9.55;;
12118;SDS011;6123;48.864;9.200;2022-09-30T07:10:31;58.05;;;14.50;;
12118;SDS011;6123;48.864;9.200;2022-09-30T07:12:56;15.27;;;10.90;;
12118;SDS011;6123;48.864;9.200;2022-09-30T07:15:26;32.90;;;12.65;;
12118;SDS011;6123;48.864;9.200;2022-09-30T07:17:52;119.80;;;16.95;;
12118;SDS011;6123;48.864;9.200;2022-09-30T07:20:20;13.18;;;11.98;;
12118;SDS011;6123;48.864;9.200;2022-09-30T07:22:46;14.07;;;10.57;;
12118;SDS011;6123;48.864;9.200;2022-09-30T07:25:12;22.58;;;13.68;;
12118;SDS011;6123;48.864;9.200;2022-09-30T07:27:38;11.90;;;10.70;;
12118;SDS011;6123;48.864;9.200;2022-09-30T07:30:05;40.95;;;14.27;;
12118;SDS011;6123;48.864;9.200;2022-09-30T07:32:31;66.00;;;16.30;;
12118;SDS011;6123;48.864;9.200;2022-09-30T07:34:57;93.47;;;17.10;;
12118;SDS011;6123;48.864;9.200;2022-09-30T07:37:25;12.15;;;11.00;;
12118;SDS011;6123;48.864;9.200;2022-09-30T07:39:51;11.55;;;10.45;;
12118;SDS011;6123;48.864;9.200;2022-09-30T07:42:17;11.10;;;10.20;;
12118;SDS011;6123;48.864;9.200;2022-09-30T07:44:46;13.70;;;10.93;;
12118;SDS011;6123;48.864;9.200;2022-09-30T07:47:12;18.23;;;13.45;;
12118;SDS011;6123;48.864;9.200;2022-09-30T07:49:39;10.90;;;9.90;;
12118;SDS011;6123;48.864;9.200;2022-09-30T07:52:06;15.40;;;11.50;;
12118;SDS011;6123;48.864;9.200;2022-09-30T07:54:33;13.10;;;10.57;;
12118;SDS011;6123;48.864;9.200;2022-09-30T07:56:59;12.45;;;11.35;;
12118;SDS011;6123;48.864;9.200;2022-09-30T07:59:27;11.50;;;10.45;;
12118;SDS011;6123;48.864;9.200;2022-09-30T08:01:54;15.27;;;12.07;;
12118;SDS011;6123;48.864;9.200;2022-09-30T08:04:20;15.93;;;13.27;;
12118;SDS011;6123;48.864;9.200;2022-09-30T08:06:49;14.10;;;12.68;;
12118;SDS011;6123;48.864;9.200;2022-09-30T08:09:17;15.60;;;14.05;;
12118;SDS011;6123;48.864;9.200;2022-09-30T08:11:45;15.32;;;13.80;;
12118;SDS011;6123;48.864;9.200;2022-09-30T08:14:15;14.98;;;13.57;;
12118;SDS011;6123;48.864;9.200;2022-09-30T08:16:43;14.73;;;13.35;;
12118;SDS011;6123;48.864;9.200;2022-09-30T08:19:18;14.70;;;13.30;;
12118;SDS011;6123;48.864;9.200;2022-09-30T08:21:47;14.38;;;13.00;;
12118;SDS011;6123;48.864;9.200;2022-09-30T08:24:16;15.85;;;14.18;;
12118;SDS011;6123;48.864;9.200;2022-09-30T08:26:42;15.35;;;13.80;;
12118;SDS011;6123;48.864;9.200;2022-09-30T08:29:10;14.98;;;13.63;;
12118;SDS011;6123;48.864;9.200;2022-09-30T08:31:37;15.10;;;13.60;;
12118;SDS011;6123;48.864;9.200;2022-09-30T08:34:03;16.17;;;14.57;;
12118;SDS011;6123;48.864;9.200;2022-09-30T08:36:29;15.15;;;13.75;;
12118;SDS011;6123;48.864;9.200;2022-09-30T08:38:55;15.50;;;14.10;;
12118;SDS011;6123;48.864;9.200;2022-09-30T08:46:39;14.98;;;13.63;;
12118;SDS011;6123;48.864;9.200;2022-09-30T08:52:19;15.93;;;14.35;;
12118;SDS011;6123;48.864;9.200;2022-09-30T08:54:57;16.33;;;14.73;;
12118;SDS011;6123;48.864;9.200;2022-09-30T08:57:24;16.33;;;14.82;;
12118;SDS011;6123;48.864;9.200;2022-09-30T08:59:59;14.15;;;12.95;;
12118;SDS011;6123;48.864;9.200;2022-09-30T09:02:37;17.42;;;15.82;;
12118;SDS011;6123;48.864;9.200;2022-09-30T09:05:09;14.00;;;12.63;;
12118;SDS011;6123;48.864;9.200;2022-09-30T09:07:54;14.65;;;13.25;;
12118;SDS011;6123;48.864;9.200;2022-09-30T09:10:37;13.52;;;12.27;;
12118;SDS011;6123;48.864;9.200;2022-09-30T09:24:11;13.25;;;12.15;;
12118;SDS011;6123;48.864;9.200;2022-09-30T09:26:58;14.82;;;13.63;;
12118;SDS011;6123;48.864;9.200;2022-09-30T09:29:51;13.13;;;12.02;;
12118;SDS011;6123;48.864;9.200;2022-09-30T09:32:53;12.57;;;11.48;;
12118;SDS011;6123;48.864;9.200;2022-09-30T09:38:22;13.63;;;12.43;;
12118;SDS011;6123;48.864;9.200;2022-09-30T09:51:47;7.68;;;6.88;;
12118;SDS011;6123;48.864;9.200;2022-09-30T09:54:29;7.78;;;7.18;;
12118;SDS011;6123;48.864;9.200;2022-09-30T09:57:08;7.80;;;6.93;;
12118;SDS011;6123;48.864;9.200;2022-09-30T09:59:37;7.55;;;6.95;;
12118;SDS011;6123;48.864;9.200;2022-09-30T10:02:23;8.15;;;7.40;;
12118;SDS011;6123;48.864;9.200;2022-09-30T10:04:53;9.25;;;8.43;;
12118;SDS011;6123;48.864;9.200;2022-09-30T10:07:26;7.88;;;7.28;;
12118;SDS011;6123;48.864;9.200;2022-09-30T10:12:42;8.80;;;8.00;;
12118;SDS011;6123;48.864;9.200;2022-09-30T10:15:13;8.30;;;7.57;;
12118;SDS011;6123;48.864;9.200;2022-09-30T10:17:53;8.07;;;7.38;;
12118;SDS011;6123;48.864;9.200;2022-09-30T10:20:33;7.82;;;7.03;;
12118;SDS011;6123;48.864;9.200;2022-09-30T10:25:32;7.65;;;6.95;;
12118;SDS011;6123;48.864;9.200;2022-09-30T10:28:02;8.20;;;7.43;;
12118;SDS011;6123;48.864;9.200;2022-09-30T10:30:50;7.10;;;6.50;;
12118;SDS011;6123;48.864;9.200;2022-09-30T10:36:07;6.68;;;6.07;;
12118;SDS011;6123;48.864;9.200;2022-09-30T10:38:44;6.20;;;5.60;;
12118;SDS011;6123;48.864;9.200;2022-09-30T10:41:30;5.72;;;5.22;;
12118;SDS011;6123;48.864;9.200;2022-09-30T10:44:02;5.00;;;4.60;;
12118;SDS011;6123;48.864;9.200;2022-09-30T10:46:37;6.43;;;5.82;;
12118;SDS011;6123;48.864;9.200;2022-09-30T10:49:08;6.13;;;5.63;;
12118;SDS011;6123;48.864;9.200;2022-09-30T10:51:55;6.95;;;6.35;;
12118;SDS011;6123;48.864;9.200;2022-09-30T10:57:04;7.22;;;6.65;;
12118;SDS011;6123;48.864;9.200;2022-09-30T10:59:38;8.05;;;6.57;;
12118;SDS011;6123;48.864;9.200;2022-09-30T11:05:01;5.72;;;5.10;;
12118;SDS011;6123;48.864;9.200;2022-09-30T11:12:55;5.80;;;5.30;;
12118;SDS011;6123;48.864;9.200;2022-09-30T11:15:27;6.03;;;5.53;;
12118;SDS011;6123;48.864;9.200;2022-09-30T11:18:03;5.70;;;5.30;;
12118;SDS011;6123;48.864;9.200;2022-09-30T11:20:47;4.82;;;4.43;;
12118;SDS011;6123;48.864;9.200;2022-09-30T11:26:00;4.97;;;4.45;;
12118;SDS011;6123;48.864;9.200;2022-09-30T11:31:30;3.28;;;2.90;;
12118;SDS011;6123;48.864;9.200;2022-09-30T11:37:06;3.13;;;2.88;;
12118;SDS011;6123;48.864;9.200;2022-09-30T11:56:32;2.15;;;1.90;;
12118;SDS011;6123;48.864;9.200;2022-09-30T11:59:27;1.95;;;1.85;;
12118;SDS011;6123;48.864;9.200;2022-09-30T12:02:00;3.70;;;2.20;;
12118;SDS011;6123;48.864;9.200;2022-09-30T12:04:30;2.88;;;2.20;;
12118;SDS011;6123;48.864;9.200;2022-09-30T12:07:13;3.88;;;3.58;;
12118;SDS011;6123;48.864;9.200;2022-09-30T12:09:56;2.95;;;2.75;;
12118;SDS011;6123;48.864;9.200;2022-09-30T12:12:25;3.28;;;2.97;;
12118;SDS011;6123;48.864;9.200;2022-09-30T12:14:58;2.25;;;2.05;;
12118;SDS011;6123;48.864;9.200;2022-09-30T12:20:25;3.78;;;1.85;;
12118;SDS011;6123;48.864;9.200;2022-09-30T12:23:16;3.47;;;2.05;;
12118;SDS011;6123;48.864;9.200;2022-09-30T12:26:00;2.35;;;1.98;;
12118;SDS011;6123;48.864;9.200;2022-09-30T12:34:08;1.83;;;1.73;;
12118;SDS011;6123;48.864;9.200;2022-09-30T12:36:54;4.90;;;1.90;;
12118;SDS011;6123;48.864;9.200;2022-09-30T12:42:28;2.63;;;2.33;;
12118;SDS011;6123;48.864;9.200;2022-09-30T12:48:02;2.53;;;2.00;;
12118;SDS011;6123;48.864;9.200;2022-09-30T12:50:48;3.35;;;1.70;;
12118;SDS011;6123;48.864;9.200;2022-09-30T12:53:18;1.73;;;1.63;;
12118;SDS011;6123;48.864;9.200;2022-09-30T12:55:51;1.85;;;1.40;;
12118;SDS011;6123;48.864;9.200;2022-09-30T12:58:29;1.65;;;1.55;;
12118;SDS011;6123;48.864;9.200;2022-09-30T13:03:26;2.83;;;1.77;;
12118;SDS011;6123;48.864;9.200;2022-09-30T13:05:56;1.70;;;1.60;;
12118;SDS011;6123;48.864;9.200;2022-09-30T13:11:32;1.45;;;1.30;;
12118;SDS011;6123;48.864;9.200;2022-09-30T13:14:02;2.00;;;1.33;;
12118;SDS011;6123;48.864;9.200;2022-09-30T13:30:32;1.35;;;1.25;;
12118;SDS011;6123;48.864;9.200;2022-09-30T13:35:31;1.65;;;1.50;;
12118;SDS011;6123;48.864;9.200;2022-09-30T13:40:44;2.35;;;1.92;;
12118;SDS011;6123;48.864;9.200;2022-09-30T13:43:13;1.42;;;1.33;;
12118;SDS011;6123;48.864;9.200;2022-09-30T13:45:44;1.58;;;1.48;;
12118;SDS011;6123;48.864;9.200;2022-09-30T13:48:15;1.80;;;1.60;;
12118;SDS011;6123;48.864;9.200;2022-09-30T13:50:49;1.92;;;1.50;;
12118;SDS011;6123;48.864;9.200;2022-09-30T13:53:27;1.40;;;1.30;;
12118;SDS011;6123;48.864;9.200;2022-09-30T13:55:56;2.30;;;2.10;;
12118;SDS011;6123;48.864;9.200;2022-09-30T14:04:26;2.63;;;2.35;;
12118;SDS011;6123;48.864;9.200;2022-09-30T14:20:58;3.83;;;3.22;;
12118;SDS011;6123;48.864;9.200;2022-09-30T14:23:54;3.13;;;2.53;;
12118;SDS011;6123;48.864;9.200;2022-09-30T14:28:52;2.58;;;2.38;;
12118;SDS011;6123;48.864;9.200;2022-09-30T14:31:27;2.42;;;2.00;;
12118;SDS011;6123;48.864;9.200;2022-09-30T14:33:56;2.35;;;1.95;;
12118;SDS011;6123;48.864;9.200;2022-09-30T14:36:22;2.97;;;2.38;;
12118;SDS011;6123;48.864;9.200;2022-09-30T14:38:52;1.35;;;1.23;;
12118;SDS011;6123;48.864;9.200;2022-09-30T14:41:25;1.77;;;1.42;;
12118;SDS011;6123;48.864;9.200;2022-09-30T14:43:54;1.52;;;1.17;;
12118;SDS011;6123;48.864;9.200;2022-09-30T14:46:28;2.45;;;1.50;;
12118;SDS011;6123;48.864;9.200;2022-09-30T14:49:00;2.22;;;1.80;;
12118;SDS011;6123;48.864;9.200;2022-09-30T14:51:38;1.23;;;1.08;;
12118;SDS011;6123;48.864;9.200;2022-09-30T14:54:15;1.83;;;1.50;;
12118;SDS011;6123;48.864;9.200;2022-09-30T14:56:44;2.45;;;2.00;;
12118;SDS011;6123;48.864;9.200;2022-09-30T14:59:15;1.80;;;1.70;;
12118;SDS011;6123;48.864;9.200;2022-09-30T15:01:51;1.42;;;1.33;;
12118;SDS011;6123;48.864;9.200;2022-09-30T15:04:26;1.85;;;1.48;;
12118;SDS011;6123;48.864;9.200;2022-09-30T15:06:57;1.48;;;1.38;;
12118;SDS011;6123;48.864;9.200;2022-09-30T15:09:35;2.58;;;2.35;;
12118;SDS011;6123;48.864;9.200;2022-09-30T15:12:14;2.13;;;1.58;;
12118;SDS011;6123;48.864;9.200;2022-09-30T15:17:17;2.30;;;1.92;;
12118;SDS011;6123;48.864;9.200;2022-09-30T15:19:48;2.85;;;2.60;;
12118;SDS011;6123;48.864;9.200;2022-09-30T15:22:14;2.58;;;2.38;;
12118;SDS011;6123;48.864;9.200;2022-09-30T15:24:42;3.22;;;2.55;;
12118;SDS011;6123;48.864;9.200;2022-09-30T15:27:19;3.10;;;2.42;;
12118;SDS011;6123;48.864;9.200;2022-09-30T15:29:55;2.92;;;2.30;;
12118;SDS011;6123;48.864;9.200;2022-09-30T15:32:26;2.10;;;2.00;;
12118;SDS011;6123;48.864;9.200;2022-09-30T15:34:54;2.90;;;2.70;;
12118;SDS011;6123;48.864;9.200;2022-09-30T15:37:22;2.58;;;2.38;;
12118;SDS011;6123;48.864;9.200;2022-09-30T15:39:50;2.50;;;2.30;;
12118;SDS011;6123;48.864;9.200;2022-09-30T15:42:36;4.55;;;3.22;;
12118;SDS011;6123;48.864;9.200;2022-09-30T15:45:30;3.95;;;3.60;;
12118;SDS011;6123;48.864;9.200;2022-09-30T15:47:59;3.17;;;2.40;;
12118;SDS011;6123;48.864;9.200;2022-09-30T15:53:11;2.88;;;2.63;;
12118;SDS011;6123;48.864;9.200;2022-09-30T15:55:46;3.72;;;2.90;;
12118;SDS011;6123;48.864;9.200;2022-09-30T16:01:07;4.18;;;2.85;;
12118;SDS011;6123;48.864;9.200;2022-09-30T16:03:47;4.00;;;3.65;;
12118;SDS011;6123;48.864;9.200;2022-09-30T16:06:25;3.45;;;3.15;;
12118;SDS011;6123;48.864;9.200;2022-09-30T16:09:04;3.15;;;2.55;;
12118;SDS011;6123;48.864;9.200;2022-09-30T16:11:34;2.88;;;2.60;;
12118;SDS011;6123;48.864;9.200;2022-09-30T16:14:18;3.00;;;2.70;;
12118;SDS011;6123;48.864;9.200;2022-09-30T16:16:50;3.10;;;2.40;;
12118;SDS011;6123;48.864;9.200;2022-09-30T16:19:19;4.20;;;3.75;;
12118;SDS011;6123;48.864;9.200;2022-09-30T16:21:46;3.53;;;3.22;;
12118;SDS011;6123;48.864;9.200;2022-09-30T16:25:02;4.03;;;2.30;;
12118;SDS011;6123;48.864;9.200;2022-09-30T16:27:19;3.35;;;2.50;;
12118;SDS011;6123;48.864;9.200;2022-09-30T16:29:51;3.63;;;2.67;;
12118;SDS011;6123;48.864;9.200;2022-09-30T16:32:17;3.03;;;2.72;;
12118;SDS011;6123;48.864;9.200;2022-09-30T16:34:42;2.60;;;2.40;;
12118;SDS011;6123;48.864;9.200;2022-09-30T16:37:12;3.78;;;2.60;;
12118;SDS011;6123;48.864;9.200;2022-09-30T16:39:39;3.88;;;2.70;;
12118;SDS011;6123;48.864;9.200;2022-09-30T16:42:05;2.65;;;2.45;;
12118;SDS011;6123;48.864;9.200;2022-09-30T16:44:36;2.47;;;2.28;;
12118;SDS011;6123;48.864;9.200;2022-09-30T16:47:02;4.00;;;3.08;;
12118;SDS011;6123;48.864;9.200;2022-09-30T16:49:28;5.32;;;4.82;;
12118;SDS011;6123;48.864;9.200;2022-09-30T16:51:54;4.70;;;4.25;;
12118;SDS011;6123;48.864;9.200;2022-09-30T16:54:19;2.90;;;2.70;;
12118;SDS011;6123;48.864;9.200;2022-09-30T16:56:45;3.45;;;2.70;;
12118;SDS011;6123;48.864;9.200;2022-09-30T16:59:14;4.65;;;3.03;;
12118;SDS011;6123;48.864;9.200;2022-09-30T17:01:41;3.47;;;2.55;;
12118;SDS011;6123;48.864;9.200;2022-09-30T17:04:07;3.05;;;2.75;;
12118;SDS011;6123;48.864;9.200;2022-09-30T17:06:34;2.92;;;2.70;;
12118;SDS011;6123;48.864;9.200;2022-09-30T17:09:02;2.25;;;2.05;;
12118;SDS011;6123;48.864;9.200;2022-09-30T17:11:29;2.60;;;2.40;;
12118;SDS011;6123;48.864;9.200;2022-09-30T17:13:59;3.80;;;2.70;;
12118;SDS011;6123;48.864;9.200;2022-09-30T17:16:26;3.95;;;3.08;;
12118;SDS011;6123;48.864;9.200;2022-09-30T17:18:52;2.95;;;2.75;;
12118;SDS011;6123;48.864;9.200;2022-09-30T17:21:19;3.55;;;2.90;;
12118;SDS011;6123;48.864;9.200;2022-09-30T17:23:45;3.20;;;2.90;;
12118;SDS011;6123;48.864;9.200;2022-09-30T17:26:12;2.88;;;2.63;;
12118;SDS011;6123;48.864;9.200;2022-09-30T17:28:40;3.45;;;3.15;;
12118;SDS011;6123;48.864;9.200;2022-09-30T17:31:06;3.63;;;3.15;;
12118;SDS011;6123;48.864;9.200;2022-09-30T17:33:34;5.20;;;2.90;;
12118;SDS011;6123;48.864;9.200;2022-09-30T17:36:02;4.30;;;3.20;;
12118;SDS011;6123;48.864;9.200;2022-09-30T17:38:30;4.72;;;4.32;;
12118;SDS011;6123;48.864;9.200;2022-09-30T17:40:56;6.32;;;5.72;;
12118;SDS011;6123;48.864;9.200;2022-09-30T17:43:40;6.75;;;5.53;;
12118;SDS011;6123;48.864;9.200;2022-09-30T17:46:06;4.93;;;4.53;;
12118;SDS011;6123;48.864;9.200;2022-09-30T17:48:32;4.40;;;3.95;;
12118;SDS011;6123;48.864;9.200;2022-09-30T17:51:01;3.83;;;3.53;;
12118;SDS011;6123;48.864;9.200;2022-09-30T17:53:26;5.47;;;4.00;;
12118;SDS011;6123;48.864;9.200;2022-09-30T17:56:03;4.03;;;3.63;;
12118;SDS011;6123;48.864;9.200;2022-09-30T17:58:37;4.82;;;3.83;;
12118;SDS011;6123;48.864;9.200;2022-09-30T18:01:04;3.97;;;3.35;;
12118;SDS011;6123;48.864;9.200;2022-09-30T18:03:34;6.00;;;5.40;;
12118;SDS011;6123;48.864;9.200;2022-09-30T18:06:00;5.25;;;4.78;;
12118;SDS011;6123;48.864;9.200;2022-09-30T18:08:26;6.03;;;5.45;;
12118;SDS011;6123;48.864;9.200;2022-09-30T18:10:54;5.47;;;4.63;;
12118;SDS011;6123;48.864;9.200;2022-09-30T18:13:21;5.95;;;5.07;;
12118;SDS011;6123;48.864;9.200;2022-09-30T18:15:48;5.95;;;5.35;;
12118;SDS011;6123;48.864;9.200;2022-09-30T18:18:15;5.20;;;4.70;;
12118;SDS011;6123;48.864;9.200;2022-09-30T18:20:42;5.50;;;4.47;;
12118;SDS011;6123;48.864;9.200;2022-09-30T18:23:09;6.10;;;5.50;;
12118;SDS011;6123;48.864;9.200;2022-09-30T18:25:35;8.88;;;7.93;;
12118;SDS011;6123;48.864;9.200;2022-09-30T18:28:03;6.35;;;5.75;;
12118;SDS011;6123;48.864;9.200;2022-09-30T18:30:32;5.85;;;5.35;;
12118;SDS011;6123;48.864;9.200;2022-09-30T18:33:02;6.53;;;5.93;;
12118;SDS011;6123;48.864;9.200;2022-09-30T18:35:34;10.57;;;8.60;;
12118;SDS011;6123;48.864;9.200;2022-09-30T18:38:01;8.40;;;7.28;;
12118;SDS011;6123;48.864;9.200;2022-09-30T18:40:27;10.20;;;9.07;;
12118;SDS011;6123;48.864;9.200;2022-09-30T18:42:55;9.32;;;8.43;;
12118;SDS011;6123;48.864;9.200;2022-09-30T18:45:25;8.55;;;7.75;;
12118;SDS011;6123;48.864;9.200;2022-09-30T18:47:53;8.77;;;7.68;;
12118;SDS011;6123;48.864;9.200;2022-09-30T18:50:23;7.07;;;6.38;;
12118;SDS011;6123;48.864;9.200;2022-09-30T18:52:54;8.35;;;6.85;;
12118;SDS011;6123;48.864;9.200;2022-09-30T18:55:22;9.70;;;7.20;;
12118;SDS011;6123;48.864;9.200;2022-09-30T18:57:52;8.00;;;7.07;;
12118;SDS011;6123;48.864;9.200;2022-09-30T19:00:18;7.00;;;6.30;;
12118;SDS011;6123;48.864;9.200;2022-09-30T19:02:47;7.28;;;6.68;;
12118;SDS011;6123;48.864;9.200;2022-09-30T19:05:13;8.43;;;6.50;;